Flight Track Log - Related Links

Times and Time Zones

All times are in EDT time to prevent confusion due to time zone crossing. See the GJS3712 flight status page for this flight to view local times or setup timezone preferences in your user account.

Time Position Orientation Groundspeed Altitude Reporting Facility
EDT Latitude Longitude Course Direction KTS MPH feet Rate Location/Type
Mon 01:44:50 PM 39.8667 -75.2833 237° Southwest 163 188 800  Level Philadelphia TRACON
Mon 01:46:02 PM 39.8333 -75.3500 237° Southwest 226 260 3,300 2,545 Climbing Philadelphia TRACON
Mon 01:47:02 PM 39.8500 -75.4333 285° West 240 276 6,400 2,895 Climbing Philadelphia TRACON
Mon 01:47:56 PM 39.9000 -75.4667 333° Northwest 283 326 8,800 1,842 Climbing Philadelphia TRACON
Mon 01:48:56 PM 39.9833 -75.4833 351° North 281 323 9,900 600 Climbing Philadelphia TRACON
Mon 01:49:56 PM 40.0500 -75.5167 339° North 283 326 10,000 171 Climbing Philadelphia TRACON
Mon 01:50:41 PM 40.1053 -75.5256 353° North 312 359 10,200 1,019 Climbing New York Center
Mon 01:51:42 PM 40.2103 -75.5572 347° North 372 428 11,800 1,686 Climbing New York Center
Mon 01:52:42 PM 40.2736 -75.6406 315° West 357 411 13,600 1,835 Climbing New York Center
Mon 01:53:43 PM 40.3425 -75.7381 313° West 357 411 15,500 1,664 Climbing New York Center
Mon 01:54:41 PM 40.4167 -75.8525 310° West 372 428 16,900 966 Climbing New York Center
Mon 01:55:41 PM 40.4553 -75.9753 292° West 369 425 17,400 1,190 Climbing New York Center
Mon 01:56:42 PM 40.4731 -76.0911 281° West 364 419 19,300 2,016 Climbing New York Center
Mon 01:57:43 PM 40.4922 -76.2183 281° West 364 419 21,500 2,033 Climbing New York Center
Mon 01:58:43 PM 40.5111 -76.3453 281° West 359 413 23,400 1,831 Climbing New York Center
Mon 01:59:41 PM 40.5306 -76.4672 282° West 354 407 25,100 1,613 Climbing New York Center
Mon 02:00:42 PM 40.5514 -76.5944 282° West 354 407 26,600 1,289 Climbing New York Center
Mon 02:01:42 PM 40.5617 -76.7211 276° West 354 407 27,700 942 Climbing New York Center
Mon 02:02:43 PM 40.5736 -76.8558 277° West 364 419 28,500 793 Climbing New York Center
Mon 02:03:43 PM 40.5869 -76.9994 277° West 381 438 29,300 835 Climbing New York Center
Mon 02:05:21 PM 40.6086 -77.2544 276° West 388 447 30,700 835 Climbing Cleveland Center
Mon 02:06:21 PM 40.6211 -77.4042 276° West 401 461 31,500 650 Climbing Cleveland Center
Mon 02:07:21 PM 40.6358 -77.5569 277° West 413 475 32,000 250 Climbing Cleveland Center
Mon 02:08:21 PM 40.6481 -77.7094 276° West 424 488 32,000  Level Cleveland Center
Mon 02:09:21 PM 40.6642 -77.8622 278° West 424 488 32,000  Level Cleveland Center
Mon 02:10:21 PM 40.6844 -78.0119 280° West 424 488 32,000  Level Cleveland Center
Mon 02:11:21 PM 40.7067 -78.1644 281° West 424 488 32,000  Level Cleveland Center
Mon 02:12:21 PM 40.7264 -78.3172 280° West 424 488 32,000  Level Cleveland Center
Mon 02:13:21 PM 40.7481 -78.4672 281° West 429 494 32,000  Level Cleveland Center
Mon 02:14:21 PM 40.7675 -78.6228 279° West 429 494 32,000  Level Cleveland Center
Mon 02:15:21 PM 40.7908 -78.7758 281° West 429 494 32,000  Level Cleveland Center
Mon 02:16:21 PM 40.8075 -78.9153 279° West 429 494 32,000 200 Level Cleveland Center
Mon 02:17:21 PM 40.8308 -79.0875 280° West 429 494 32,400 700 Climbing Cleveland Center
Mon 02:18:21 PM 40.8514 -79.2408 280° West 429 494 33,400 1,000 Climbing Cleveland Center
Mon 02:19:21 PM 40.8700 -79.3969 279° West 429 494 34,400 1,000 Climbing Cleveland Center
Mon 02:20:21 PM 40.8900 -79.5478 280° West 429 494 35,400 800 Climbing Cleveland Center
Mon 02:21:21 PM 40.9081 -79.6986 279° West 429 494 36,000 300 Climbing Cleveland Center
Mon 02:22:21 PM 40.9258 -79.8522 279° West 429 494 36,000  Level Cleveland Center
Mon 02:23:21 PM 40.9433 -79.9894 280° West 429 494 36,000  Level Cleveland Center
Mon 02:24:21 PM 40.9628 -80.1403 280° West 429 494 36,000  Level Cleveland Center
Mon 02:25:21 PM 40.9797 -80.2917 278° West 429 494 36,000  Level Cleveland Center
Mon 02:26:21 PM 40.9969 -80.4400 279° West 429 494 36,000  Level Cleveland Center
Mon 02:27:21 PM 41.0178 -80.5969 280° West 429 494 36,000  Level Cleveland Center
Mon 02:28:21 PM 41.0344 -80.7483 278° West 429 494 36,000  Level Cleveland Center
Mon 02:29:21 PM 41.0506 -80.8997 278° West 429 494 36,000  Level Cleveland Center
Mon 02:30:21 PM 41.0606 -81.0511 275° West 424 488 36,000  Level Cleveland Center
Mon 02:31:21 PM 41.0681 -81.2111 274° West 429 494 36,000  Level Cleveland Center
Mon 02:32:21 PM 41.0775 -81.3653 275° West 424 488 36,000  Level Cleveland Center
Mon 02:33:21 PM 41.0869 -81.5225 275° West 424 488 36,000  Level Cleveland Center
Mon 02:34:21 PM 41.0958 -81.6908 274° West 424 488 36,000  Level Cleveland Center
Mon 02:35:21 PM 41.1067 -81.8453 275° West 424 488 36,000  Level Cleveland Center
Mon 02:36:21 PM 41.1153 -81.9997 274° West 424 488 36,000  Level Cleveland Center
Mon 02:37:21 PM 41.1236 -82.1542 274° West 424 488 36,000  Level Cleveland Center
Mon 02:38:21 PM 41.1319 -82.3061 274° West 424 488 36,000  Level Cleveland Center
Mon 02:39:21 PM 41.1400 -82.4442 274° West 424 488 36,000  Level Cleveland Center
Mon 02:40:21 PM 41.1458 -82.5989 273° West 424 488 36,000  Level Cleveland Center
Mon 02:41:21 PM 41.1536 -82.7481 274° West 424 488 36,000  Level Cleveland Center
Mon 02:42:21 PM 41.1611 -82.8944 274° West 419 482 36,000  Level Cleveland Center
Mon 02:43:21 PM 41.1683 -83.0464 274° West 414 476 36,000  Level Cleveland Center
Mon 02:44:21 PM 41.1753 -83.2067 273° West 409 471 36,000  Level Cleveland Center
Mon 02:45:21 PM 41.1842 -83.3561 275° West 404 465 36,000  Level Cleveland Center
Mon 02:46:21 PM 41.1886 -83.5081 272° West 410 472 36,000  Level Cleveland Center
Mon 02:47:21 PM 41.1972 -83.6575 274° West 410 472 36,000  Level Cleveland Center
Mon 02:48:21 PM 41.2025 -83.7764 273° West 405 466 36,000 -63 Level Cleveland Center
Mon 02:50:30 PM 41.2183 -84.0939 274° West 398 458 35,800 -251 Descending Chicago Center
Mon 02:51:32 PM 41.2253 -84.2742 273° West 405 466 35,200 -532 Descending Chicago Center
Mon 02:52:34 PM 41.2289 -84.4239 272° West 405 466 34,700 -484 Descending Chicago Center
Mon 02:53:36 PM 41.2328 -84.5756 272° West 409 471 34,200 -339 Descending Chicago Center
Mon 02:54:38 PM 41.2364 -84.7256 272° West 409 471 34,000 -97 Descending Chicago Center
Mon 02:55:40 PM 41.2419 -84.8731 273° West 403 464 34,000  Level Chicago Center
Mon 02:56:42 PM 41.2456 -85.0189 272° West 398 458 34,000 -48 Level Chicago Center
Mon 02:57:44 PM 41.2517 -85.1967 273° West 398 458 33,900 -864 Descending Chicago Center
Mon 02:58:47 PM 41.2561 -85.3483 272° West 404 465 32,200 -1,776 Descending Chicago Center
Mon 02:59:49 PM 41.2606 -85.5058 272° West 417 480 30,200 -1,984 Descending Chicago Center
Mon 03:00:51 PM 41.2644 -85.6619 272° West 421 484 28,100 -2,274 Descending Chicago Center
Mon 03:01:53 PM 41.2675 -85.8117 272° West 405 466 25,500 -1,500 Descending Chicago Center
Mon 03:02:55 PM 41.2769 -85.9558 275° West 392 451 25,000 -532 Descending Chicago Center
Mon 03:03:57 PM 41.2903 -86.1011 277° West 394 453 24,400 -1,355 Descending Chicago Center
Mon 03:04:59 PM 41.3072 -86.2422 279° West 390 449 22,200 -2,468 Descending Chicago Center
Mon 03:06:01 PM 41.3275 -86.4028 280° West 369 425 19,300 -2,274 Descending Chicago Center
Mon 03:07:03 PM 41.3422 -86.5317 279° West 354 407 17,500 -1,887 Descending Chicago Center
Mon 03:08:05 PM 41.3828 -86.6469 295° West 345 397 15,400 -1,968 Descending Chicago Center
Mon 03:09:08 PM 41.4489 -86.7283 317° Northwest 324 373 13,400 -1,584 Descending Chicago Center
Mon 03:10:10 PM 41.5292 -86.7769 336° Northwest 320 368 12,100 -677 Descending Chicago Center
Mon 03:11:12 PM 41.6169 -86.7897 354° North 317 365 12,000 -48 Descending Chicago Center
Mon 03:12:14 PM 41.7219 -86.8019 355° North 319 367 12,000  Level Chicago Center
Mon 03:13:16 PM 41.8100 -86.8164 353° North 320 368 12,000 -48 Level Chicago Center
Mon 03:14:18 PM 41.8894 -86.8608 337° Northwest 321 369 11,900 -435 Descending Chicago Center
Mon 03:15:20 PM 41.9169 -86.9653 290° West 314 361 11,100 -871 Descending Chicago Center
Mon 03:16:22 PM 41.9314 -87.0667 281° West 291 335 10,100 -968 Descending Chicago Center
Mon 03:17:24 PM 41.9483 -87.1817 281° West 269 310 9,100 -871 Descending Chicago Center
Mon 03:18:26 PM 41.9619 -87.2761 281° West 262 302 8,300 -726 Descending Chicago Center
Mon 03:19:28 PM 41.9739 -87.3694 280° West 257 296 7,600 -742 Descending Chicago Center
Mon 03:20:03 PM 41.9833 -87.4333 281° West 259 298 7,100 -1,137 Descending Chicago TRACON
Mon 03:21:03 PM 41.9833 -87.5333 270° West 238 274 5,800 -1,200 Descending Chicago TRACON
Mon 03:22:03 PM 41.9833 -87.6000 270° West 203 234 4,700 -950 Descending Chicago TRACON
Mon 03:23:03 PM 41.9833 -87.6667 270° West 170 196 3,900 -850 Descending Chicago TRACON
Mon 03:24:03 PM 41.9833 -87.7333 270° West 178 205 3,000 -950 Descending Chicago TRACON
Mon 03:25:03 PM 41.9833 -87.8000 270° West 177 204 2,000 -864 Descending Chicago TRACON
Mon 03:26:15 PM 41.9833 -87.8667 270° West 148 170 1,100 -750 Descending Chicago TRACON
Mon 03:28:00 PM 41.9667 -87.9000 270° West  Level FlightAware Approximate

Login

Don't have an account? Register now (free) for customized features, flight alerts, and more!